Arapaho, Oklahoma
Current Conditions -  °F | °C
As of 2:55 PM on Tuesday 27 Jan 2015 (Local Time) from KCLK Reporting Station
Clear Clear  
Wind Chill: 75°   Ceiling: Unl
Heat Index: 75°   Visibility: 10mi
Dew Point: 30°   Wind: 10mph
Humidity: 19%   Direction: 200°SSW
Pressure: 30.1"   Gusts: 20mph
Location:  35.58°N, 98.96°W
Report Text: KCLK 272055Z AUTO 20009G17KT 10SM CLR 24/M01 A3010 RMK AO2
Loading
Personal Weather Stations






























Interactive Weather Map New forecast layout! Learn more

10-Day Weather Forecast

Advertisements
Track Severe Weather on mobile